map of WDH home
WDH - Airport
Location
City:  Windhoek, Khomas, Namibia
Name:Hosea Kutako International Airport
Old (Alt.):J. G. Strijdom
ICAO:FYWH
IATA:WDH

Details
Type:Airport (Aerodrome, Airfield)
Use:Public/Civil, International (customs port of entry)
Latitude:2228'48"S (-22.479893)
Longitude:1728'15"E (17.470950)
Datum:WGS 1984
Elevation:5640 ft (1719 m)
Variation:12.01W (WMM2015 magnetic declination)
0.09 annual change
Runways:2
Longest:15010 × 148 ft (4575 × 45 m), paved

Time
Time Zone:UTC+1 (DST+2)

Weather
METAR:FYWH 172300Z AUTO 24002KT //// // ////// 13/M06 Q1023

Related Locations
Nearby:
Farthest:BKH: 12269 mi / 19744 km
Kekaha [Barking Sands Pacific Missile Range Facility (PMRF) Airport], Kauai, HI, US

Find:

   beyond  
but within

Other Information
Maps:
NOTAMs:
Links:
Sources:

  
flag of Namibia   

Sectional Chart

Flight Planning
at skyvector.com

Satellite Image

Google Maps Satellite view

 

Copyright © 2004-2017 Karl L. Swartz. All rights reserved.
The Great Circle Mapper name and logo are trademarks of the Great Circle Mapper.
All other trademarks mentioned herein belong to their respective owners.
Please see credits for attibutions and further copyright information.

  Follow gcmap on Facebook Follow gcmap on Twitter Follow gcmap on Google+ GCmap on LinkedIn

hCard Microformat

Geo Microformat